createdAt,value
2022-09-22T00:04:28.705Z,94.90
2022-09-22T00:09:31.516Z,95.00
2022-09-22T00:14:34.523Z,95.10
2022-09-22T00:19:38.208Z,95.30
2022-09-22T00:24:43.419Z,95.60
2022-09-22T00:29:47.198Z,95.70
2022-09-22T00:34:50.442Z,96.00
2022-09-22T00:39:53.942Z,96.00
2022-09-22T00:44:56.879Z,96.10
2022-09-22T00:50:19.022Z,96.40
2022-09-22T00:55:43.862Z,96.40
2022-09-22T01:00:46.929Z,96.80
2022-09-22T01:05:54.860Z,97.00
2022-09-22T01:10:59.609Z,97.00
2022-09-22T01:16:21.801Z,97.00
2022-09-22T01:21:48.286Z,97.10
2022-09-22T01:27:06.228Z,97.10
2022-09-22T01:32:42.872Z,97.30
2022-09-22T01:38:13.129Z,97.60
2022-09-22T01:43:40.752Z,98.00
2022-09-22T01:48:50.941Z,99.00
2022-09-22T01:54:01.323Z,99.50
2022-09-22T01:59:07.407Z,99.80
2022-09-22T02:04:26.523Z,99.60
2022-09-22T02:09:32.974Z,99.30
2022-09-22T02:14:35.996Z,99.40
2022-09-22T02:19:41.135Z,99.50
2022-09-22T02:24:46.564Z,99.70
2022-09-22T02:30:08.243Z,99.80
2022-09-22T02:35:11.346Z,99.90
2022-09-22T02:40:43.081Z,99.90
2022-09-22T02:46:20.425Z,99.90
2022-09-22T02:51:23.617Z,99.90
2022-09-22T02:56:26.401Z,99.90
2022-09-22T03:01:29.148Z,99.90
2022-09-22T03:06:32.541Z,99.90
2022-09-22T03:11:35.538Z,99.90
2022-09-22T03:16:38.428Z,99.90
2022-09-22T03:21:41.192Z,99.90
2022-09-22T03:26:43.891Z,99.90
2022-09-22T03:31:46.815Z,99.90
2022-09-22T03:36:50.128Z,99.90
2022-09-22T03:41:52.876Z,99.90
2022-09-22T03:46:55.855Z,99.90
2022-09-22T03:51:58.648Z,99.90
2022-09-22T03:57:04.251Z,99.90
2022-09-22T04:02:07.724Z,99.90
2022-09-22T04:07:10.628Z,99.90
2022-09-22T04:12:13.430Z,99.90
2022-09-22T04:17:16.244Z,99.90
2022-09-22T04:22:19.155Z,99.90
2022-09-22T04:27:21.973Z,99.90
2022-09-22T04:32:24.893Z,99.90
2022-09-22T04:37:27.803Z,99.90
2022-09-22T04:42:30.776Z,99.90
2022-09-22T04:47:34.075Z,99.90
2022-09-22T04:52:37.101Z,99.90
2022-09-22T04:57:40.059Z,99.90
2022-09-22T05:02:43.056Z,99.90
2022-09-22T05:07:49.075Z,99.90
2022-09-22T05:12:55.832Z,99.90
2022-09-22T05:17:59.453Z,99.90
2022-09-22T05:23:02.366Z,99.90
2022-09-22T05:28:05.284Z,99.90
2022-09-22T05:33:08.394Z,99.90
2022-09-22T05:38:11.234Z,99.90
2022-09-22T05:43:15.002Z,99.90
2022-09-22T05:48:17.807Z,99.90
2022-09-22T05:53:20.829Z,99.90
2022-09-22T05:58:24.551Z,99.90
2022-09-22T06:03:27.361Z,99.90
2022-09-22T06:08:30.993Z,99.90
2022-09-22T06:13:33.888Z,99.90
2022-09-22T06:18:36.853Z,99.90
2022-09-22T06:23:42.950Z,99.90
2022-09-22T06:28:47.219Z,99.90
2022-09-22T06:33:50.490Z,99.90
2022-09-22T06:38:56.248Z,99.90
2022-09-22T06:43:59.474Z,99.90
2022-09-22T06:49:02.855Z,99.90
2022-09-22T06:54:06.848Z,99.90
2022-09-22T06:59:13.060Z,99.90
2022-09-22T07:04:17.747Z,99.90
2022-09-22T07:09:21.265Z,99.90
2022-09-22T07:14:25.491Z,99.90
2022-09-22T07:19:28.376Z,99.90
2022-09-22T07:24:31.150Z,99.90
2022-09-22T07:29:33.971Z,99.90
2022-09-22T07:34:36.745Z,99.90
2022-09-22T07:39:39.513Z,99.90
2022-09-22T07:45:01.105Z,99.90
2022-09-22T07:50:04.824Z,99.90
2022-09-22T07:55:08.342Z,99.90
2022-09-22T08:00:12.782Z,99.90
2022-09-22T08:05:16.615Z,99.90
2022-09-22T08:10:20.205Z,99.90
2022-09-22T08:15:27.095Z,99.90
2022-09-22T08:20:30.425Z,99.90
2022-09-22T08:25:33.150Z,99.20
2022-09-22T08:30:36.436Z,98.60
2022-09-22T08:35:51.134Z,98.30
2022-09-22T08:41:31.716Z,97.40
2022-09-22T08:46:38.453Z,96.20
2022-09-22T08:51:52.289Z,94.80
2022-09-22T08:57:00.859Z,93.50
2022-09-22T09:02:34.843Z,92.70
2022-09-22T09:07:46.733Z,92.10
2022-09-22T09:13:30.700Z,92.20
2022-09-22T09:18:39.439Z,91.70
2022-09-22T09:29:22.160Z,91.00
2022-09-22T09:34:29.098Z,91.00
2022-09-22T09:39:41.874Z,90.50
2022-09-22T09:44:45.669Z,88.70
2022-09-22T09:49:52.727Z,86.20
2022-09-22T09:54:55.920Z,84.90
2022-09-22T10:00:33.949Z,83.80
2022-09-22T10:05:37.658Z,82.70
2022-09-22T10:10:42.250Z,81.10
2022-09-22T10:16:20.255Z,80.70
2022-09-22T10:21:24.870Z,78.10
2022-09-22T10:26:33.550Z,77.80
2022-09-22T10:31:37.949Z,75.20
2022-09-22T10:36:45.793Z,74.50
2022-09-22T10:41:49.269Z,73.20
2022-09-22T10:47:14.103Z,72.70
2022-09-22T10:52:19.590Z,74.70
2022-09-22T10:58:02.613Z,75.80
2022-09-22T11:03:47.403Z,75.70
2022-09-22T11:09:25.827Z,74.10
2022-09-22T11:14:45.816Z,75.30
2022-09-22T11:20:09.997Z,70.70
2022-09-22T11:26:14.154Z,68.30
2022-09-22T11:32:05.557Z,65.40
2022-09-22T11:37:25.946Z,59.70
2022-09-22T11:42:47.758Z,63.10
2022-09-22T11:48:21.503Z,61.30
2022-09-22T11:53:46.007Z,61.80
2022-09-22T11:58:52.821Z,61.20
2022-09-22T12:04:35.818Z,61.60
2022-09-22T12:09:52.015Z,62.20
2022-09-22T12:15:20.558Z,63.40
2022-09-22T12:20:53.651Z,63.70
2022-09-22T12:26:12.377Z,64.80
2022-09-22T12:31:21.129Z,64.40
2022-09-22T12:36:30.889Z,61.30
2022-09-22T12:41:33.574Z,61.80
2022-09-22T12:46:36.264Z,60.80
2022-09-22T12:51:39.015Z,58.90
2022-09-22T12:56:49.024Z,58.10
2022-09-22T13:02:12.025Z,59.90
2022-09-22T13:07:37.992Z,59.10
2022-09-22T13:12:40.615Z,58.60
2022-09-22T13:17:49.660Z,63.00
2022-09-22T13:22:52.888Z,64.30
2022-09-22T13:28:16.464Z,65.00
2022-09-22T13:33:24.115Z,67.00
2022-09-22T13:38:27.646Z,67.30
2022-09-22T13:43:39.262Z,68.40
2022-09-22T13:48:42.025Z,68.00
2022-09-22T13:53:50.216Z,69.30
2022-09-22T13:58:57.325Z,69.60
2022-09-22T14:04:00.398Z,69.90
2022-09-22T14:09:03.844Z,70.50
2022-09-22T14:14:21.061Z,71.40
2022-09-22T14:19:37.480Z,71.40
2022-09-22T14:24:44.962Z,72.40
2022-09-22T14:29:51.071Z,73.20
2022-09-22T14:34:58.891Z,73.10
2022-09-22T14:40:04.996Z,74.70
2022-09-22T14:45:10.794Z,74.60
2022-09-22T14:50:38.322Z,75.60
2022-09-22T14:55:44.753Z,75.50
2022-09-22T15:01:16.679Z,74.80
2022-09-22T15:06:19.492Z,75.80
2022-09-22T15:11:42.093Z,75.70
2022-09-22T15:16:44.858Z,75.30
2022-09-22T15:21:48.039Z,72.40
2022-09-22T15:26:50.834Z,68.10
2022-09-22T15:31:53.535Z,64.20
2022-09-22T15:36:57.168Z,66.30
2022-09-22T15:42:07.330Z,58.50
2022-09-22T15:47:17.021Z,57.80
2022-09-22T15:52:19.678Z,58.50
2022-09-22T15:57:22.336Z,58.80
2022-09-22T16:02:25.947Z,60.20
2022-09-22T16:07:28.600Z,63.20
2022-09-22T16:12:31.206Z,67.20
2022-09-22T16:17:33.826Z,69.10
2022-09-22T16:22:36.521Z,71.30
2022-09-22T16:27:39.230Z,72.50
2022-09-22T16:32:42.979Z,74.60
2022-09-22T16:37:46.231Z,77.10
2022-09-22T16:42:48.856Z,77.80
2022-09-22T16:47:51.679Z,78.30
2022-09-22T16:52:54.866Z,77.30
2022-09-22T16:57:58.783Z,76.50
2022-09-22T17:03:01.515Z,76.80
2022-09-22T17:08:06.797Z,76.50
2022-09-22T17:13:09.692Z,76.80
2022-09-22T17:18:12.555Z,76.70
2022-09-22T17:23:15.608Z,76.70
2022-09-22T17:28:18.295Z,76.60
2022-09-22T17:33:21.671Z,76.70
2022-09-22T17:38:27.008Z,76.80
2022-09-22T17:43:29.707Z,76.90
2022-09-22T17:48:50.878Z,77.20
2022-09-22T17:54:11.995Z,77.20
2022-09-22T17:59:15.071Z,77.20
2022-09-22T18:04:17.710Z,77.30
2022-09-22T18:09:20.925Z,77.50
2022-09-22T18:14:25.255Z,77.50
2022-09-22T18:19:30.621Z,77.50
2022-09-22T18:24:37.893Z,77.70
2022-09-22T18:29:40.660Z,77.70
2022-09-22T18:34:43.680Z,77.40
2022-09-22T18:39:50.400Z,77.30
2022-09-22T18:44:53.267Z,77.30
2022-09-22T18:49:57.006Z,77.30
2022-09-22T18:55:00.506Z,77.10
2022-09-22T19:00:04.505Z,77.00
2022-09-22T19:05:07.373Z,77.40
2022-09-22T19:10:12.459Z,78.00
2022-09-22T19:15:18.806Z,78.70
2022-09-22T19:20:25.113Z,79.00
2022-09-22T19:25:28.943Z,78.80
2022-09-22T19:30:31.805Z,78.50
2022-09-22T19:35:38.938Z,78.30
2022-09-22T19:40:42.042Z,78.50
2022-09-22T19:45:44.683Z,78.50
2022-09-22T19:50:47.647Z,78.90
2022-09-22T19:55:50.473Z,80.80
2022-09-22T20:00:53.078Z,82.40
2022-09-22T20:05:55.735Z,81.70
2022-09-22T20:11:22.670Z,82.00
2022-09-22T20:16:21.418Z,81.80
2022-09-22T20:21:26.061Z,80.90
2022-09-22T20:26:28.750Z,80.90
2022-09-22T20:31:31.449Z,81.00
2022-09-22T20:36:37.034Z,81.00
2022-09-22T20:41:41.748Z,81.60
2022-09-22T20:46:47.872Z,82.20
2022-09-22T20:51:50.966Z,82.80
2022-09-22T20:56:54.518Z,83.50
2022-09-22T21:02:00.681Z,84.30
2022-09-22T21:07:03.727Z,83.60
2022-09-22T21:12:06.865Z,84.80
2022-09-22T21:17:09.509Z,85.40
2022-09-22T21:22:13.003Z,86.30
2022-09-22T21:27:15.735Z,86.20
2022-09-22T21:32:20.045Z,88.00
2022-09-22T21:37:23.501Z,87.30
2022-09-22T21:42:26.904Z,87.20
2022-09-22T21:47:29.586Z,88.00
2022-09-22T21:52:32.186Z,88.40
2022-09-22T21:57:34.840Z,87.10
2022-09-22T22:02:57.457Z,87.60
2022-09-22T22:08:00.227Z,88.40
2022-09-22T22:13:03.002Z,88.40
2022-09-22T22:18:05.792Z,88.50
2022-09-22T22:23:09.483Z,90.00
2022-09-22T22:28:12.093Z,89.50
2022-09-22T22:33:14.729Z,90.10
2022-09-22T22:38:17.842Z,90.60
2022-09-22T22:43:21.044Z,90.90
2022-09-22T22:48:24.300Z,90.40
2022-09-22T22:53:26.894Z,91.50
2022-09-22T22:58:31.795Z,91.30
2022-09-22T23:03:34.423Z,91.50
2022-09-22T23:08:37.441Z,92.10
2022-09-22T23:13:45.254Z,92.40
2022-09-22T23:18:48.204Z,92.40
2022-09-22T23:23:50.838Z,92.90
2022-09-22T23:28:54.057Z,92.60
2022-09-22T23:33:57.566Z,92.90
2022-09-22T23:39:05.022Z,93.10
2022-09-22T23:44:07.907Z,92.80
2022-09-22T23:49:10.472Z,93.40
2022-09-22T23:54:15.949Z,93.40
2022-09-22T23:59:18.541Z,93.60
